Time;durP1;ratioP1;P1;durP2;ratioP2;P2;SDS_P1;SDS_P2;PMS_P1;PMS_P2;Temp;Humidity;BMP_temperature;BMP_pressure;BME280_temperature;BME280_humidity;BME280_pressure;Samples;Min_cycle;Max_cycle;Signal;HPM_P1;HPM_P2
2024/03/17 00:00:06;;;;;;;17.80;13.57;;;12.10;95.00;;;;;;5071163;28;20685;-60
2024/03/17 00:02:32;;;;;;;14.17;12.13;;;12.10;95.10;;;;;;5073837;28;20660;-60
2024/03/17 00:04:58;;;;;;;15.93;12.77;;;12.10;95.20;;;;;;5073311;28;20193;-60
2024/03/17 00:07:25;;;;;;;15.87;12.87;;;12.10;95.20;;;;;;5072875;28;20262;-60
2024/03/17 00:09:51;;;;;;;14.43;10.73;;;12.10;95.20;;;;;;5072132;28;20202;-60
2024/03/17 00:12:17;;;;;;;17.83;11.53;;;12.10;95.20;;;;;;5072219;28;20204;-60
2024/03/17 00:14:44;;;;;;;14.93;12.03;;;12.10;95.20;;;;;;5072499;28;20198;-60
2024/03/17 00:17:11;;;;;;;13.87;11.93;;;12.10;95.30;;;;;;5066926;28;20209;-60
2024/03/17 00:19:37;;;;;;;18.63;12.30;;;12.00;95.30;;;;;;5072072;28;20631;-60
2024/03/17 00:22:03;;;;;;;12.90;10.70;;;12.10;95.40;;;;;;5073455;28;20208;-60
2024/03/17 00:24:34;;;;;;;17.83;10.70;;;12.10;95.50;;;;;;5074176;28;20575;-60
2024/03/17 00:27:03;;;;;;;12.00;10.37;;;12.10;95.50;;;;;;5087808;28;20515;-59
2024/03/17 00:29:29;;;;;;;13.03;11.50;;;12.10;95.50;;;;;;5057329;28;20213;-60
2024/03/17 00:31:56;;;;;;;16.07;11.27;;;12.10;95.50;;;;;;5055115;28;20212;-60
2024/03/17 00:34:22;;;;;;;15.33;11.17;;;12.00;95.40;;;;;;5072721;28;20279;-60
2024/03/17 00:36:49;;;;;;;18.27;12.20;;;12.00;95.50;;;;;;5050322;28;20212;-60
2024/03/17 00:39:15;;;;;;;13.00;11.60;;;12.00;95.50;;;;;;5073240;28;20221;-60
2024/03/17 00:41:41;;;;;;;15.83;11.10;;;12.00;95.60;;;;;;5071860;28;20202;-60
2024/03/17 00:44:07;;;;;;;17.83;11.23;;;12.00;95.70;;;;;;5072521;28;20198;-60
2024/03/17 00:46:33;;;;;;;13.87;10.73;;;12.00;95.80;;;;;;5070831;28;20235;-60
2024/03/17 00:49:02;;;;;;;14.30;11.27;;;11.90;95.80;;;;;;5073090;28;20205;-60
2024/03/17 00:51:29;;;;;;;15.20;11.90;;;12.00;95.70;;;;;;5071814;28;20261;-60
2024/03/17 00:53:56;;;;;;;13.00;11.13;;;12.00;95.70;;;;;;5072096;28;20197;-60
2024/03/17 00:56:22;;;;;;;17.07;11.47;;;11.90;95.70;;;;;;5072779;28;20205;-60
2024/03/17 00:58:51;;;;;;;15.83;10.77;;;11.90;95.80;;;;;;5070427;28;20322;-60
2024/03/17 01:01:19;;;;;;;12.70;10.40;;;11.90;95.90;;;;;;5083955;28;20682;-60
2024/03/17 01:03:46;;;;;;;12.23;10.87;;;11.90;96.00;;;;;;5070664;28;20203;-60
2024/03/17 01:06:12;;;;;;;12.30;10.40;;;11.90;96.10;;;;;;5073388;28;20205;-60
2024/03/17 01:08:38;;;;;;;13.10;10.30;;;11.90;96.10;;;;;;5069735;28;20553;-60
2024/03/17 01:11:08;;;;;;;11.60;9.50;;;11.90;96.20;;;;;;5088700;28;20254;-60
2024/03/17 01:13:41;;;;;;;10.70;8.43;;;11.90;96.20;;;;;;5071133;28;20639;-60
2024/03/17 01:16:07;;;;;;;10.67;8.73;;;11.90;96.20;;;;;;5068397;28;20193;-60
2024/03/17 01:18:34;;;;;;;13.53;7.87;;;11.80;96.00;;;;;;5071794;28;20662;-60
2024/03/17 01:21:00;;;;;;;12.57;8.70;;;11.80;95.90;;;;;;5070703;28;20925;-60
2024/03/17 01:23:27;;;;;;;9.47;8.20;;;11.80;95.80;;;;;;5089654;28;20249;-60
2024/03/17 01:25:53;;;;;;;12.43;8.20;;;11.70;95.70;;;;;;5070150;28;20196;-60
2024/03/17 01:28:19;;;;;;;10.67;8.60;;;11.70;95.70;;;;;;5069985;28;20211;-60
2024/03/17 01:30:47;;;;;;;12.17;9.47;;;11.70;95.70;;;;;;5070711;28;20229;-60
2024/03/17 01:33:13;;;;;;;12.37;9.47;;;11.60;95.60;;;;;;5071325;28;20201;-60
2024/03/17 01:35:39;;;;;;;11.53;9.23;;;11.60;96.00;;;;;;5072632;28;20209;-60
2024/03/17 01:38:05;;;;;;;12.63;9.10;;;11.50;95.70;;;;;;5070514;28;20285;-60
2024/03/17 01:40:31;;;;;;;13.87;9.37;;;11.50;95.80;;;;;;5072237;28;20634;-60
2024/03/17 01:42:57;;;;;;;12.53;9.53;;;11.50;95.80;;;;;;5071170;28;20543;-60
2024/03/17 01:45:33;;;;;;;11.47;9.83;;;11.40;95.90;;;;;;5069138;28;20206;-60
2024/03/17 01:48:01;;;;;;;13.73;10.67;;;11.50;96.00;;;;;;5069889;28;20205;-60
2024/03/17 01:50:35;;;;;;;16.00;10.53;;;11.40;96.30;;;;;;5072998;28;20209;-60
2024/03/17 01:53:06;;;;;;;14.87;9.80;;;11.40;96.20;;;;;;5070685;28;20216;-60
2024/03/17 01:55:36;;;;;;;15.30;10.20;;;11.40;96.30;;;;;;5066313;28;20552;-60
2024/03/17 01:58:04;;;;;;;11.07;9.87;;;11.40;96.20;;;;;;5072356;28;20229;-60
2024/03/17 02:00:31;;;;;;;14.30;9.67;;;11.30;96.20;;;;;;5070888;28;20240;-60
2024/03/17 02:02:57;;;;;;;10.50;9.40;;;11.20;96.20;;;;;;5070679;28;20195;-60
2024/03/17 02:05:23;;;;;;;13.83;9.17;;;11.20;96.30;;;;;;5070892;28;20215;-60
2024/03/17 02:07:50;;;;;;;14.67;10.77;;;11.20;96.30;;;;;;5071692;28;20287;-60
2024/03/17 02:10:16;;;;;;;14.17;11.27;;;11.10;96.30;;;;;;5071493;28;20209;-60
2024/03/17 02:12:42;;;;;;;12.37;9.87;;;11.10;96.40;;;;;;5066884;28;20196;-60
2024/03/17 02:15:08;;;;;;;14.57;10.23;;;11.10;96.40;;;;;;5069887;28;20237;-60
2024/03/17 02:17:34;;;;;;;15.77;11.40;;;11.10;96.30;;;;;;5054048;28;20655;-60
2024/03/17 02:20:01;;;;;;;12.20;9.97;;;11.00;96.40;;;;;;5071072;28;20496;-60
2024/03/17 02:22:30;;;;;;;11.60;10.30;;;11.00;96.40;;;;;;5072055;28;20199;-60
2024/03/17 02:24:56;;;;;;;12.73;10.63;;;11.00;96.40;;;;;;5062439;28;20195;-60
2024/03/17 02:27:22;;;;;;;12.93;10.83;;;11.00;96.60;;;;;;5072109;28;20276;-60
2024/03/17 02:29:48;;;;;;;11.70;9.53;;;11.00;96.60;;;;;;5075129;28;20530;-60
2024/03/17 02:32:14;;;;;;;17.73;11.50;;;11.00;96.60;;;;;;5076205;28;20190;-60
2024/03/17 02:34:41;;;;;;;13.53;10.77;;;11.00;96.60;;;;;;5072397;28;20190;-60
2024/03/17 02:37:07;;;;;;;14.73;11.00;;;11.00;96.70;;;;;;5076314;28;20201;-60
2024/03/17 02:39:34;;;;;;;12.13;10.27;;;11.00;96.80;;;;;;5071657;28;20670;-60
2024/03/17 02:42:07;;;;;;;14.27;11.17;;;11.00;96.80;;;;;;5075631;28;20213;-60
2024/03/17 02:44:35;;;;;;;18.20;11.97;;;11.00;96.70;;;;;;5074162;28;20263;-60
2024/03/17 02:47:04;;;;;;;14.37;10.73;;;11.00;96.70;;;;;;5074368;28;20209;-60
2024/03/17 02:49:36;;;;;;;16.00;11.30;;;11.00;96.70;;;;;;5078982;28;20195;-60
2024/03/17 02:52:06;;;;;;;12.63;10.53;;;11.00;96.80;;;;;;5072255;28;20197;-60
2024/03/17 02:54:34;;;;;;;11.90;9.37;;;11.00;96.80;;;;;;5073518;28;20396;-60
2024/03/17 02:57:00;;;;;;;12.87;9.07;;;11.00;97.00;;;;;;5073678;28;20264;-60
2024/03/17 02:59:26;;;;;;;14.13;9.90;;;11.00;96.70;;;;;;5072784;28;20569;-60
2024/03/17 03:01:53;;;;;;;12.10;10.80;;;10.90;96.70;;;;;;5089226;28;20194;-60
2024/03/17 03:04:20;;;;;;;14.33;11.10;;;10.90;96.70;;;;;;5070159;28;20216;-60
2024/03/17 03:06:46;;;;;;;13.13;9.47;;;10.90;96.80;;;;;;5072708;28;20203;-60
2024/03/17 03:09:14;;;;;;;12.50;7.90;;;10.90;96.90;;;;;;5075442;28;20205;-60
2024/03/17 03:11:40;;;;;;;10.80;8.93;;;10.80;96.90;;;;;;5074142;28;20260;-60
2024/03/17 03:14:07;;;;;;;10.10;8.60;;;10.80;96.70;;;;;;5071574;28;20230;-60
2024/03/17 03:16:34;;;;;;;11.27;10.07;;;10.80;96.60;;;;;;5074620;28;20580;-60
2024/03/17 03:19:00;;;;;;;14.40;10.20;;;10.70;96.60;;;;;;5072243;28;20286;-60
2024/03/17 03:21:26;;;;;;;13.00;9.93;;;10.70;96.60;;;;;;5071356;28;20201;-60
2024/03/17 03:23:52;;;;;;;14.90;10.17;;;10.70;96.70;;;;;;5073945;28;20212;-60
2024/03/17 03:26:18;;;;;;;12.47;9.30;;;10.70;96.80;;;;;;5066792;28;20212;-60
2024/03/17 03:28:44;;;;;;;15.83;10.60;;;10.70;96.80;;;;;;5073911;28;20262;-60
2024/03/17 03:31:13;;;;;;;16.37;10.30;;;10.70;96.80;;;;;;5071981;28;20204;-60
2024/03/17 03:33:41;;;;;;;14.63;10.50;;;10.70;96.90;;;;;;5072146;28;20542;-60
2024/03/17 03:36:11;;;;;;;9.80;8.80;;;10.70;96.90;;;;;;5087786;28;20212;-60
2024/03/17 03:38:37;;;;;;;12.73;8.77;;;10.70;97.00;;;;;;5074330;28;20242;-60
2024/03/17 03:41:08;;;;;;;13.23;10.47;;;10.60;97.00;;;;;;5073528;28;20228;-60
2024/03/17 03:43:34;;;;;;;10.77;9.63;;;10.60;96.90;;;;;;5074715;28;20201;-60
2024/03/17 03:46:02;;;;;;;12.97;10.03;;;10.60;97.00;;;;;;5074725;28;20196;-60
2024/03/17 03:48:28;;;;;;;10.40;9.30;;;10.60;97.00;;;;;;5067275;28;20653;-60
2024/03/17 03:50:54;;;;;;;9.80;8.23;;;10.60;97.10;;;;;;5073564;28;20209;-60
2024/03/17 03:53:21;;;;;;;10.03;8.93;;;10.60;97.10;;;;;;5072243;28;20201;-60
2024/03/17 03:55:47;;;;;;;10.77;9.67;;;10.60;97.10;;;;;;5073716;28;20205;-60
2024/03/17 03:58:13;;;;;;;11.43;9.37;;;10.60;97.20;;;;;;5072417;28;20291;-60
2024/03/17 04:00:39;;;;;;;11.30;9.73;;;10.60;97.10;;;;;;5055818;28;20233;-60
2024/03/17 04:03:05;;;;;;;10.80;9.07;;;10.60;97.10;;;;;;5081958;28;20688;-60
2024/03/17 04:05:32;;;;;;;12.80;9.10;;;10.60;97.10;;;;;;5052611;28;20683;-60
2024/03/17 04:08:00;;;;;;;12.10;9.40;;;10.60;97.00;;;;;;5073071;28;20204;-60
2024/03/17 04:10:26;;;;;;;13.00;10.17;;;10.60;97.00;;;;;;5071270;28;20639;-59
2024/03/17 04:12:53;;;;;;;11.27;9.57;;;10.60;97.00;;;;;;5072222;28;20216;-60
2024/03/17 04:15:19;;;;;;;10.73;9.27;;;10.60;97.00;;;;;;5055619;28;20218;-59
2024/03/17 04:17:46;;;;;;;10.97;9.13;;;10.60;97.00;;;;;;5072319;28;20221;-60
2024/03/17 04:20:15;;;;;;;10.37;8.97;;;10.50;97.10;;;;;;5073151;28;20194;-60
2024/03/17 04:22:43;;;;;;;14.97;9.40;;;10.50;97.10;;;;;;5072316;28;20206;-59
2024/03/17 04:25:09;;;;;;;10.67;9.30;;;10.50;97.20;;;;;;5071618;28;20202;-60
2024/03/17 04:27:36;;;;;;;11.47;8.13;;;10.50;97.20;;;;;;5077741;28;20485;-60
2024/03/17 04:30:05;;;;;;;13.07;9.17;;;10.50;97.30;;;;;;5073552;28;20291;-60
2024/03/17 04:32:32;;;;;;;12.50;10.87;;;10.50;97.30;;;;;;5055793;28;20666;-60
2024/03/17 04:34:58;;;;;;;13.23;9.77;;;10.50;97.30;;;;;;5070426;28;20247;-60
2024/03/17 04:37:24;;;;;;;12.97;9.30;;;10.50;97.40;;;;;;5056107;28;20202;-60
2024/03/17 04:39:51;;;;;;;12.23;9.80;;;10.50;97.70;;;;;;5073077;28;20208;-60
2024/03/17 04:42:18;;;;;;;9.80;8.80;;;10.50;97.50;;;;;;5071654;28;20206;-60
2024/03/17 04:44:45;;;;;;;11.50;9.03;;;10.50;97.60;;;;;;5074116;28;20576;-60
2024/03/17 04:47:12;;;;;;;11.00;9.00;;;10.50;97.60;;;;;;5052920;28;20259;-60
2024/03/17 04:49:40;;;;;;;11.23;8.50;;;10.50;97.50;;;;;;5074189;28;20205;-60
2024/03/17 04:52:07;;;;;;;12.47;10.10;;;10.50;97.50;;;;;;5071271;28;20224;-60
2024/03/17 04:54:34;;;;;;;9.80;8.80;;;10.50;97.50;;;;;;5073196;28;20639;-60
2024/03/17 04:57:00;;;;;;;14.17;9.93;;;10.50;97.40;;;;;;5070281;28;20226;-60
2024/03/17 04:59:26;;;;;;;11.67;9.50;;;10.50;97.40;;;;;;5071891;28;20245;-60
2024/03/17 05:01:53;;;;;;;12.23;9.23;;;10.40;97.40;;;;;;5069389;28;20197;-60
2024/03/17 05:04:20;;;;;;;8.83;7.93;;;10.40;97.50;;;;;;5088753;28;20189;-60
2024/03/17 05:06:46;;;;;;;11.33;8.57;;;10.40;97.50;;;;;;5056659;28;20201;-60
2024/03/17 05:09:16;;;;;;;12.53;9.73;;;10.40;97.50;;;;;;5072820;28;20845;-60
2024/03/17 05:11:43;;;;;;;11.17;8.63;;;10.40;97.50;;;;;;5054183;28;20217;-59
2024/03/17 05:14:09;;;;;;;11.27;9.40;;;10.40;97.60;;;;;;5071477;28;20653;-60
2024/03/17 05:16:35;;;;;;;11.67;8.50;;;10.40;97.60;;;;;;5073569;28;20200;-59
2024/03/17 05:19:03;;;;;;;13.63;9.00;;;10.40;97.60;;;;;;5072621;28;20224;-60
2024/03/17 05:21:30;;;;;;;12.80;8.23;;;10.40;97.60;;;;;;5055470;28;20198;-60
2024/03/17 05:23:58;;;;;;;10.57;8.20;;;10.40;97.70;;;;;;5040219;28;20205;-59
2024/03/17 05:26:24;;;;;;;12.40;8.50;;;10.40;97.80;;;;;;5072247;28;20237;-59
2024/03/17 05:28:51;;;;;;;10.83;9.10;;;10.50;97.80;;;;;;5070578;28;20209;-60
2024/03/17 05:31:17;;;;;;;11.67;9.87;;;10.50;97.80;;;;;;5039538;28;20201;-60
2024/03/17 05:33:44;;;;;;;12.13;9.93;;;10.50;97.80;;;;;;5061683;28;20201;-60
2024/03/17 05:36:11;;;;;;;11.90;9.70;;;10.50;97.70;;;;;;5055676;28;20201;-60
2024/03/17 05:38:37;;;;;;;10.27;8.97;;;10.50;97.80;;;;;;5070683;28;20529;-60
2024/03/17 05:41:05;;;;;;;13.13;10.07;;;10.50;97.90;;;;;;5070152;28;20216;-59
2024/03/17 05:43:36;;;;;;;11.70;9.70;;;10.50;97.90;;;;;;5068560;28;20194;-60
2024/03/17 05:46:06;;;;;;;11.90;10.13;;;10.50;98.00;;;;;;5070479;28;20239;-60
2024/03/17 05:48:40;;;;;;;11.60;8.83;;;10.60;98.10;;;;;;5068537;28;20209;-60
2024/03/17 05:51:11;;;;;;;13.07;8.90;;;10.60;98.10;;;;;;5061036;28;20540;-60
2024/03/17 05:53:43;;;;;;;11.80;9.07;;;10.60;98.20;;;;;;5070180;28;20567;-60
2024/03/17 05:56:13;;;;;;;9.47;8.03;;;10.70;98.20;;;;;;5071412;28;20197;-60
2024/03/17 05:58:39;;;;;;;12.77;9.17;;;10.70;98.20;;;;;;5067917;28;20228;-60
2024/03/17 06:01:09;;;;;;;12.83;9.53;;;10.80;98.10;;;;;;5069838;28;20243;-60
2024/03/17 06:03:36;;;;;;;11.20;9.13;;;10.80;98.00;;;;;;5054018;28;20500;-60
2024/03/17 06:06:03;;;;;;;18.10;8.93;;;10.90;98.00;;;;;;5067871;28;20228;-60
2024/03/17 06:08:30;;;;;;;14.90;10.07;;;10.90;98.00;;;;;;5071616;28;20205;-59
2024/03/17 06:11:00;;;;;;;11.30;9.20;;;10.90;98.30;;;;;;5069332;28;20545;-60
2024/03/17 06:13:29;;;;;;;15.27;9.63;;;11.00;98.10;;;;;;5070147;28;20193;-60
2024/03/17 06:16:00;;;;;;;10.40;8.40;;;11.00;98.10;;;;;;5071311;28;20198;-60
2024/03/17 06:18:27;;;;;;;10.77;8.80;;;11.00;98.00;;;;;;5069607;28;20207;-60
2024/03/17 06:20:54;;;;;;;15.30;9.87;;;11.10;98.00;;;;;;5067930;28;20210;-60
2024/03/17 06:23:20;;;;;;;9.70;8.70;;;11.10;98.00;;;;;;5071132;28;20197;-59
2024/03/17 06:25:47;;;;;;;11.33;9.03;;;11.10;97.90;;;;;;5069576;28;20202;-60
2024/03/17 06:28:16;;;;;;;14.03;9.23;;;11.10;98.00;;;;;;5059644;28;20228;-60
2024/03/17 06:30:54;;;;;;;11.97;8.87;;;11.20;98.00;;;;;;5067663;28;20195;-59
2024/03/17 06:33:20;;;;;;;10.43;8.13;;;11.20;98.00;;;;;;5067129;28;20242;-60
2024/03/17 06:35:47;;;;;;;12.23;8.47;;;11.40;98.10;;;;;;5068354;28;20212;-60
2024/03/17 06:38:15;;;;;;;12.37;8.30;;;11.60;98.30;;;;;;5070634;28;20233;-60
2024/03/17 06:40:42;;;;;;;9.57;7.97;;;11.70;97.90;;;;;;5068742;28;20761;-60
2024/03/17 06:43:08;;;;;;;9.03;7.63;;;11.90;97.80;;;;;;5070116;28;20638;-60
2024/03/17 06:45:34;;;;;;;10.03;8.83;;;12.10;97.50;;;;;;5068181;28;20200;-60
2024/03/17 06:48:00;;;;;;;9.90;7.97;;;12.30;97.30;;;;;;5070530;28;20205;-60
2024/03/17 06:50:26;;;;;;;10.00;7.70;;;12.40;97.20;;;;;;5068410;28;20263;-60
2024/03/17 06:52:52;;;;;;;9.80;8.50;;;12.50;97.20;;;;;;5070297;28;20204;-60
2024/03/17 06:55:21;;;;;;;12.37;8.30;;;12.70;97.10;;;;;;5066907;28;20583;-60
2024/03/17 06:57:47;;;;;;;8.37;7.33;;;12.80;97.10;;;;;;5068839;28;20211;-60
2024/03/17 07:00:16;;;;;;;11.27;8.17;;;13.00;97.00;;;;;;5067716;28;20757;-59
2024/03/17 07:02:43;;;;;;;10.17;7.47;;;13.10;97.00;;;;;;5070516;28;20206;-60
2024/03/17 07:05:16;;;;;;;11.33;7.77;;;13.30;97.00;;;;;;5067894;28;20201;-60
2024/03/17 07:07:43;;;;;;;8.67;7.07;;;13.40;97.00;;;;;;5070850;28;20215;-60
2024/03/17 07:10:11;;;;;;;9.23;7.93;;;13.50;96.90;;;;;;5071771;28;20201;-60
2024/03/17 07:12:38;;;;;;;8.60;7.77;;;13.60;96.90;;;;;;5071117;28;20732;-60
2024/03/17 07:15:05;;;;;;;11.00;8.27;;;13.80;96.90;;;;;;5070740;28;20201;-60
2024/03/17 07:17:32;;;;;;;9.27;8.10;;;13.90;96.90;;;;;;5070534;28;20202;-60
2024/03/17 07:19:58;;;;;;;19.37;8.47;;;14.00;96.80;;;;;;5070702;28;20651;-60
2024/03/17 07:22:26;;;;;;;12.73;8.53;;;14.10;96.60;;;;;;5070145;28;20200;-60
2024/03/17 07:24:56;;;;;;;12.10;9.70;;;14.20;96.40;;;;;;5074204;28;20197;-60
2024/03/17 07:27:22;;;;;;;13.07;9.90;;;14.40;96.20;;;;;;5069597;28;20655;-60
2024/03/17 07:29:49;;;;;;;11.80;9.93;;;14.50;96.00;;;;;;5073874;28;20202;-60
2024/03/17 07:32:15;;;;;;;12.67;10.10;;;14.60;95.80;;;;;;5079144;28;20213;-60
2024/03/17 07:34:41;;;;;;;13.83;10.50;;;14.70;95.60;;;;;;5070216;28;20202;-60
2024/03/17 07:37:07;;;;;;;12.50;10.73;;;14.80;95.40;;;;;;5064609;28;20206;-60
2024/03/17 07:39:33;;;;;;;11.20;9.57;;;14.90;95.20;;;;;;5073700;28;20283;-60
2024/03/17 07:42:01;;;;;;;12.00;9.40;;;15.00;95.00;;;;;;5088001;28;20193;-60
2024/03/17 07:44:33;;;;;;;11.33;10.13;;;15.20;94.70;;;;;;5071516;28;20222;-60
2024/03/17 07:47:03;;;;;;;13.73;10.20;;;15.20;94.20;;;;;;5063135;28;20191;-60
2024/03/17 07:49:30;;;;;;;12.50;10.10;;;15.30;94.10;;;;;;5057923;28;20190;-59
2024/03/17 07:51:57;;;;;;;14.53;11.53;;;15.40;93.80;;;;;;5069880;28;20202;-59
2024/03/17 07:54:26;;;;;;;15.00;12.00;;;15.50;93.70;;;;;;5073985;28;20208;-60
2024/03/17 07:56:53;;;;;;;13.47;11.37;;;15.60;93.70;;;;;;5070959;28;20206;-60
2024/03/17 07:59:19;;;;;;;14.20;12.70;;;15.70;93.60;;;;;;5073489;28;20265;-60
2024/03/17 08:01:45;;;;;;;15.77;13.00;;;15.90;93.40;;;;;;5070478;28;20211;-60
2024/03/17 08:04:12;;;;;;;17.40;14.37;;;16.00;93.40;;;;;;5071812;28;20190;-60
2024/03/17 08:06:40;;;;;;;19.40;14.20;;;16.20;93.10;;;;;;5087523;28;20203;-60
2024/03/17 08:09:08;;;;;;;17.17;13.07;;;16.30;92.80;;;;;;5087910;28;20207;-60
2024/03/17 08:11:35;;;;;;;15.27;13.60;;;16.50;92.50;;;;;;5069826;28;20209;-59
2024/03/17 08:14:01;;;;;;;15.80;13.90;;;16.60;92.20;;;;;;5071623;28;20534;-60
2024/03/17 08:16:30;;;;;;;19.47;14.40;;;16.70;92.10;;;;;;5070345;28;20195;-60
2024/03/17 08:18:57;;;;;;;18.50;14.33;;;16.90;91.70;;;;;;5070570;28;20211;-60
2024/03/17 08:21:24;;;;;;;19.17;13.93;;;17.00;91.40;;;;;;5068888;28;20199;-60
2024/03/17 08:23:50;;;;;;;15.67;13.97;;;17.10;91.20;;;;;;5072661;28;20195;-60
2024/03/17 08:26:17;;;;;;;19.27;14.63;;;17.20;91.10;;;;;;5068387;28;20188;-60
2024/03/17 08:28:43;;;;;;;19.93;14.57;;;17.40;90.90;;;;;;5072171;28;20203;-60
2024/03/17 08:31:10;;;;;;;15.60;13.87;;;17.50;90.80;;;;;;5056114;28;20196;-59
2024/03/17 08:33:36;;;;;;;18.73;15.40;;;17.60;90.80;;;;;;5067222;28;20208;-60
2024/03/17 08:36:07;;;;;;;16.93;15.23;;;17.70;90.60;;;;;;5070721;28;20200;-60
2024/03/17 08:38:34;;;;;;;17.83;15.97;;;17.90;90.30;;;;;;5072360;28;20641;-60
2024/03/17 08:41:05;;;;;;;18.10;14.47;;;18.00;89.90;;;;;;5071057;28;20631;-60
2024/03/17 08:43:32;;;;;;;17.27;14.73;;;18.10;89.20;;;;;;5072943;28;20205;-60
2024/03/17 08:46:07;;;;;;;15.40;13.90;;;18.20;88.50;;;;;;5071349;28;20200;-60
2024/03/17 08:48:34;;;;;;;16.63;14.77;;;18.30;87.80;;;;;;5069167;28;20576;-60
2024/03/17 08:51:02;;;;;;;16.57;14.90;;;18.40;88.10;;;;;;5061829;28;20632;-60
2024/03/17 08:53:29;;;;;;;22.60;15.37;;;18.50;87.90;;;;;;5069265;28;20287;-60
2024/03/17 08:55:56;;;;;;;15.53;13.07;;;18.60;87.80;;;;;;5086633;28;20195;-60
2024/03/17 08:58:23;;;;;;;14.77;12.50;;;18.70;87.10;;;;;;5071613;28;20229;-60
2024/03/17 09:00:49;;;;;;;13.97;12.13;;;18.80;87.20;;;;;;5071180;28;20240;-60
2024/03/17 09:03:16;;;;;;;17.33;11.57;;;18.90;86.80;;;;;;5071769;28;20207;-60
2024/03/17 09:05:44;;;;;;;14.07;11.73;;;19.00;86.20;;;;;;5071959;28;20661;-60
2024/03/17 09:08:20;;;;;;;14.73;11.47;;;19.00;86.00;;;;;;5071380;28;20201;-60
2024/03/17 09:10:47;;;;;;;15.80;12.43;;;19.00;85.90;;;;;;5071524;28;20618;-60
2024/03/17 09:13:15;;;;;;;14.17;12.63;;;19.00;85.80;;;;;;5060073;28;20210;-60
2024/03/17 09:16:11;;;;;;;13.97;11.40;;;19.00;85.20;;;;;;5067895;28;20211;-60
2024/03/17 09:18:37;;;;;;;10.80;9.70;;;18.90;86.00;;;;;;5065154;28;20248;-60
2024/03/17 09:21:07;;;;;;;14.73;11.13;;;18.90;86.80;;;;;;5070491;28;20206;-60
2024/03/17 09:23:34;;;;;;;16.57;10.97;;;18.90;86.50;;;;;;5069645;28;20205;-60
2024/03/17 09:26:02;;;;;;;17.37;11.37;;;18.90;86.10;;;;;;5071382;28;20201;-60
2024/03/17 09:28:29;;;;;;;11.50;9.97;;;18.90;86.00;;;;;;5072278;28;20212;-60
2024/03/17 09:30:55;;;;;;;10.73;9.67;;;19.00;85.60;;;;;;5069833;28;20197;-60
2024/03/17 09:33:26;;;;;;;11.90;8.17;;;19.00;85.50;;;;;;5068770;28;20205;-60
2024/03/17 09:36:05;;;;;;;10.47;9.07;;;19.00;85.10;;;;;;5069513;28;20193;-60
2024/03/17 09:38:33;;;;;;;11.80;9.13;;;19.20;84.90;;;;;;5072877;28;20213;-60
2024/03/17 09:41:02;;;;;;;14.33;8.53;;;19.20;83.60;;;;;;5067159;28;20769;-60
2024/03/17 09:43:31;;;;;;;10.73;8.83;;;19.20;83.40;;;;;;5083815;28;20193;-60
2024/03/17 09:45:57;;;;;;;11.90;10.70;;;19.30;83.50;;;;;;5068913;28;20206;-60
2024/03/17 09:48:25;;;;;;;12.63;11.27;;;19.30;83.10;;;;;;5071052;28;20213;-60
2024/03/17 09:50:54;;;;;;;13.13;10.30;;;19.40;82.90;;;;;;5070712;28;20201;-60
2024/03/17 09:53:34;;;;;;;11.97;10.40;;;19.40;83.50;;;;;;5086166;28;20269;-60
2024/03/17 09:56:08;;;;;;;12.23;10.67;;;19.50;84.00;;;;;;5067442;28;20202;-60
2024/03/17 09:58:35;;;;;;;11.90;10.47;;;19.60;84.20;;;;;;5069426;28;20231;-60
2024/03/17 10:01:01;;;;;;;12.87;9.43;;;19.70;84.20;;;;;;5067571;28;20231;-60
2024/03/17 10:03:56;;;;;;;10.10;8.20;;;19.80;83.40;;;;;;5069682;28;20234;-60
2024/03/17 10:06:23;;;;;;;10.73;7.97;;;19.90;83.40;;;;;;5069197;28;20627;-60
2024/03/17 10:08:51;;;;;;;13.13;8.50;;;20.00;82.30;;;;;;5069337;28;20186;-61
2024/03/17 10:11:23;;;;;;;8.80;7.60;;;20.00;81.50;;;;;;5071023;28;20213;-60
2024/03/17 10:14:07;;;;;;;12.10;8.17;;;20.00;82.50;;;;;;5068190;28;20193;-60
2024/03/17 10:16:35;;;;;;;8.67;7.17;;;20.10;83.10;;;;;;5067974;28;20210;-60
2024/03/17 10:19:25;;;;;;;8.37;7.47;;;20.20;83.00;;;;;;5069454;28;20237;-60
2024/03/17 10:22:00;;;;;;;8.33;6.97;;;20.30;82.50;;;;;;5069102;28;20546;-60
2024/03/17 10:24:28;;;;;;;8.77;7.63;;;20.40;82.50;;;;;;5081778;28;20198;-60
2024/03/17 10:26:56;;;;;;;10.97;6.73;;;20.60;82.10;;;;;;5075717;28;20209;-60
2024/03/17 10:29:25;;;;;;;8.50;7.60;;;20.70;81.40;;;;;;5065693;28;20209;-60
2024/03/17 10:32:01;;;;;;;7.23;6.07;;;20.80;80.50;;;;;;5070533;28;20216;-61
2024/03/17 10:34:34;;;;;;;9.07;6.93;;;20.70;80.00;;;;;;5083753;28;20186;-60
2024/03/17 10:37:10;;;;;;;8.70;6.33;;;20.80;80.70;;;;;;5070950;28;20201;-60
2024/03/17 10:39:38;;;;;;;8.63;5.80;;;20.90;79.90;;;;;;5070602;28;20263;-60
2024/03/17 10:42:06;;;;;;;6.97;6.20;;;21.00;79.90;;;;;;5068501;28;20202;-60
2024/03/17 10:44:36;;;;;;;10.20;6.13;;;21.10;79.60;;;;;;5068447;28;20643;-60
2024/03/17 10:47:09;;;;;;;6.97;6.07;;;21.10;79.30;;;;;;5074308;28;20209;-60
2024/03/17 10:49:37;;;;;;;6.93;5.47;;;21.20;79.30;;;;;;5071584;28;20198;-60
2024/03/17 10:52:15;;;;;;;6.83;5.93;;;21.40;79.80;;;;;;5073116;28;20538;-60
2024/03/17 10:54:47;;;;;;;7.47;6.73;;;21.50;79.50;;;;;;5086908;28;20202;-61
2024/03/17 10:57:22;;;;;;;7.73;6.93;;;21.60;79.10;;;;;;5073735;28;20209;-61
2024/03/17 10:59:51;;;;;;;9.43;6.80;;;21.60;77.00;;;;;;5073361;28;20253;-61
2024/03/17 11:02:25;;;;;;;8.43;7.30;;;21.50;77.30;;;;;;5074551;28;20194;-61
2024/03/17 11:04:54;;;;;;;8.37;7.27;;;21.50;77.80;;;;;;5073961;28;20193;-61
2024/03/17 11:07:22;;;;;;;11.03;8.27;;;21.40;77.50;;;;;;5072985;28;20198;-61
2024/03/17 11:09:51;;;;;;;13.33;10.70;;;21.40;77.20;;;;;;5072074;28;20740;-61
2024/03/17 11:12:48;;;;;;;13.20;10.07;;;21.30;77.30;;;;;;5068804;28;20209;-61
2024/03/17 11:15:36;;;;;;;11.77;8.63;;;21.30;77.40;;;;;;5070251;28;20208;-61
2024/03/17 11:18:11;;;;;;;13.40;9.57;;;21.20;77.20;;;;;;5079164;28;20223;-60
2024/03/17 11:20:41;;;;;;;18.77;9.93;;;21.20;78.30;;;;;;5072310;28;20208;-60
2024/03/17 11:23:09;;;;;;;11.87;8.43;;;21.20;78.50;;;;;;5072607;28;20186;-61
2024/03/17 11:25:35;;;;;;;13.03;10.97;;;21.20;78.80;;;;;;5070856;28;20316;-61
2024/03/17 11:28:09;;;;;;;12.40;10.40;;;21.30;79.80;;;;;;5073066;28;20244;-61
2024/03/17 11:30:47;;;;;;;13.93;11.83;;;21.40;79.70;;;;;;5067485;28;20524;-61
2024/03/17 11:36:23;;;;;;;15.77;13.57;;;21.50;76.70;;;;;;5069940;28;20185;-61
2024/03/17 11:39:21;;;;;;;17.90;14.67;;;21.50;77.30;;;;;;5070295;28;20213;-61
2024/03/17 11:41:48;;;;;;;19.97;16.23;;;21.50;76.70;;;;;;5070031;28;20193;-61
2024/03/17 11:44:21;;;;;;;21.70;17.13;;;21.60;76.80;;;;;;5065906;28;20635;-61
2024/03/17 11:46:58;;;;;;;19.93;15.97;;;21.60;76.90;;;;;;5072827;28;20194;-61
2024/03/17 11:49:26;;;;;;;21.93;18.03;;;21.70;76.80;;;;;;5070445;28;20201;-61
2024/03/17 11:51:54;;;;;;;23.43;19.83;;;21.80;76.40;;;;;;5072730;28;20190;-61
2024/03/17 11:54:23;;;;;;;23.23;17.07;;;21.80;76.10;;;;;;5071968;28;20202;-61
2024/03/17 11:56:51;;;;;;;25.03;17.60;;;21.90;76.00;;;;;;5068260;28;20228;-61
2024/03/17 11:59:22;;;;;;;19.50;15.87;;;22.00;76.20;;;;;;5071282;28;20233;-61
2024/03/17 12:01:52;;;;;;;22.53;17.43;;;22.00;75.80;;;;;;5072000;28;20196;-61
2024/03/17 12:04:22;;;;;;;29.17;21.23;;;22.00;77.00;;;;;;5070746;28;20213;-61
2024/03/17 12:06:54;;;;;;;27.90;22.70;;;22.10;76.10;;;;;;5071890;28;20198;-61
2024/03/17 12:09:22;;;;;;;26.53;21.83;;;22.20;75.10;;;;;;5070554;28;20198;-61
2024/03/17 12:11:58;;;;;;;31.10;23.73;;;22.20;74.60;;;;;;5070629;28;20190;-61
2024/03/17 12:14:28;;;;;;;28.00;22.23;;;22.30;74.90;;;;;;5071246;28;20201;-61
2024/03/17 12:16:55;;;;;;;25.87;20.50;;;22.40;73.20;;;;;;5072430;28;20647;-61
2024/03/17 12:19:23;;;;;;;31.47;21.27;;;22.40;73.70;;;;;;5071052;28;20233;-61
2024/03/17 12:21:54;;;;;;;26.13;21.47;;;22.40;73.80;;;;;;5071971;28;20603;-60
2024/03/17 12:24:22;;;;;;;29.00;20.83;;;22.40;73.40;;;;;;5071549;28;20492;-60
2024/03/17 12:26:50;;;;;;;29.10;22.50;;;22.40;74.00;;;;;;5072411;28;20248;-59
2024/03/17 12:29:29;;;;;;;30.17;23.83;;;22.30;74.00;;;;;;5067966;28;20658;-59
2024/03/17 12:31:58;;;;;;;26.17;21.40;;;22.30;73.70;;;;;;5085571;28;20194;-59
2024/03/17 12:34:26;;;;;;;26.83;21.67;;;22.30;73.80;;;;;;5083867;28;20538;-59
2024/03/17 12:36:55;;;;;;;27.60;21.77;;;22.20;73.40;;;;;;5072362;28;20267;-59
2024/03/17 12:39:27;;;;;;;29.33;22.47;;;22.10;73.70;;;;;;5063124;28;20658;-59
2024/03/17 12:42:16;;;;;;;32.73;24.60;;;22.10;74.20;;;;;;5071937;28;20223;-59